Terminal Aerodrome Forecast
Issued by NWS

Home | Current Version | Previous Version | Text Only | Print | Product List | Glossary On
Versions: 1 2 3 4 5 6 7 8 9 10 11 12 13 14 15 16 17 18 19 20 21
000
FTUS44 KLZK 041100
TAFHRO
TAF
KHRO 041120Z 0412/0512 36006KT 1SM -RA BR OVC002
     FM041600 36009KT 3SM -FZRA BR OVC004
     FM041800 01010KT 2SM -PLSN BR OVC004
     FM042000 01010KT 1SM -SN BR OVC003
     FM042300 36010KT 3SM -SN BR OVC006
     FM050500 02009KT 5SM -SN BR OVC012=

USA.gov is the U.S. government's official web portal to all federal, state and local government web resources and services.